sensor_id;sensor_type;location;lat;lon;timestamp;P1;durP1;ratioP1;P2;durP2;ratioP2
29320;SDS011;16323;51.130;6.612;2022-11-20T00:02:16;3.28;;;2.53;;
29320;SDS011;16323;51.130;6.612;2022-11-20T00:04:56;4.35;;;2.60;;
29320;SDS011;16323;51.130;6.612;2022-11-20T00:10:14;3.80;;;2.47;;
29320;SDS011;16323;51.130;6.612;2022-11-20T00:12:46;3.17;;;2.60;;
29320;SDS011;16323;51.130;6.612;2022-11-20T00:15:23;4.35;;;2.33;;
29320;SDS011;16323;51.130;6.612;2022-11-20T00:17:50;4.38;;;2.28;;
29320;SDS011;16323;51.130;6.612;2022-11-20T00:20:27;4.13;;;3.15;;
29320;SDS011;16323;51.130;6.612;2022-11-20T00:23:04;3.42;;;2.60;;
29320;SDS011;16323;51.130;6.612;2022-11-20T00:25:45;3.78;;;2.65;;
29320;SDS011;16323;51.130;6.612;2022-11-20T00:28:21;3.22;;;2.10;;
29320;SDS011;16323;51.130;6.612;2022-11-20T00:30:54;4.68;;;3.15;;
29320;SDS011;16323;51.130;6.612;2022-11-20T00:33:42;3.60;;;2.45;;
29320;SDS011;16323;51.130;6.612;2022-11-20T00:36:26;2.97;;;2.22;;
29320;SDS011;16323;51.130;6.612;2022-11-20T00:44:46;4.47;;;2.90;;
29320;SDS011;16323;51.130;6.612;2022-11-20T00:47:33;3.92;;;2.47;;
29320;SDS011;16323;51.130;6.612;2022-11-20T00:50:00;4.50;;;2.58;;
29320;SDS011;16323;51.130;6.612;2022-11-20T00:56:10;4.13;;;2.70;;
29320;SDS011;16323;51.130;6.612;2022-11-20T01:01:40;4.13;;;2.60;;
29320;SDS011;16323;51.130;6.612;2022-11-20T01:04:18;3.85;;;2.70;;
29320;SDS011;16323;51.130;6.612;2022-11-20T01:06:56;3.50;;;2.65;;
29320;SDS011;16323;51.130;6.612;2022-11-20T01:09:38;4.15;;;2.78;;
29320;SDS011;16323;51.130;6.612;2022-11-20T01:12:18;3.53;;;2.72;;
29320;SDS011;16323;51.130;6.612;2022-11-20T01:18:16;3.92;;;2.60;;
29320;SDS011;16323;51.130;6.612;2022-11-20T01:20:49;3.45;;;2.35;;
29320;SDS011;16323;51.130;6.612;2022-11-20T01:26:19;4.40;;;2.80;;
29320;SDS011;16323;51.130;6.612;2022-11-20T01:29:08;3.92;;;2.95;;
29320;SDS011;16323;51.130;6.612;2022-11-20T01:32:00;3.60;;;2.72;;
29320;SDS011;16323;51.130;6.612;2022-11-20T01:34:27;3.28;;;2.22;;
29320;SDS011;16323;51.130;6.612;2022-11-20T01:37:03;2.97;;;2.63;;
29320;SDS011;16323;51.130;6.612;2022-11-20T01:39:43;4.18;;;2.80;;
29320;SDS011;16323;51.130;6.612;2022-11-20T01:48:26;3.20;;;2.63;;
29320;SDS011;16323;51.130;6.612;2022-11-20T01:51:03;5.75;;;3.17;;
29320;SDS011;16323;51.130;6.612;2022-11-20T01:53:48;3.90;;;2.67;;
29320;SDS011;16323;51.130;6.612;2022-11-20T01:56:38;3.88;;;2.78;;
29320;SDS011;16323;51.130;6.612;2022-11-20T01:59:15;3.70;;;2.60;;
29320;SDS011;16323;51.130;6.612;2022-11-20T02:01:55;2.65;;;2.17;;
29320;SDS011;16323;51.130;6.612;2022-11-20T02:04:33;4.18;;;2.95;;
29320;SDS011;16323;51.130;6.612;2022-11-20T02:07:11;3.42;;;2.60;;
29320;SDS011;16323;51.130;6.612;2022-11-20T02:09:38;3.42;;;2.88;;
29320;SDS011;16323;51.130;6.612;2022-11-20T02:12:14;6.05;;;3.10;;
29320;SDS011;16323;51.130;6.612;2022-11-20T02:15:13;3.55;;;2.50;;
29320;SDS011;16323;51.130;6.612;2022-11-20T02:17:39;3.75;;;2.80;;
29320;SDS011;16323;51.130;6.612;2022-11-20T02:20:11;3.58;;;2.55;;
29320;SDS011;16323;51.130;6.612;2022-11-20T02:22:41;3.85;;;2.60;;
29320;SDS011;16323;51.130;6.612;2022-11-20T02:25:40;3.55;;;2.72;;
29320;SDS011;16323;51.130;6.612;2022-11-20T02:28:27;3.42;;;2.42;;
29320;SDS011;16323;51.130;6.612;2022-11-20T02:30:53;5.97;;;2.70;;
29320;SDS011;16323;51.130;6.612;2022-11-20T02:33:31;4.22;;;2.70;;
29320;SDS011;16323;51.130;6.612;2022-11-20T02:35:58;3.38;;;2.60;;
29320;SDS011;16323;51.130;6.612;2022-11-20T02:38:25;3.63;;;2.83;;
29320;SDS011;16323;51.130;6.612;2022-11-20T02:44:28;4.22;;;2.70;;
29320;SDS011;16323;51.130;6.612;2022-11-20T02:49:47;3.85;;;2.80;;
29320;SDS011;16323;51.130;6.612;2022-11-20T02:52:22;4.05;;;2.70;;
29320;SDS011;16323;51.130;6.612;2022-11-20T02:58:00;3.72;;;2.88;;
29320;SDS011;16323;51.130;6.612;2022-11-20T03:00:40;3.70;;;2.78;;
29320;SDS011;16323;51.130;6.612;2022-11-20T03:03:16;3.95;;;2.92;;
29320;SDS011;16323;51.130;6.612;2022-11-20T03:08:48;5.30;;;2.63;;
29320;SDS011;16323;51.130;6.612;2022-11-20T03:11:29;3.80;;;2.85;;
29320;SDS011;16323;51.130;6.612;2022-11-20T03:14:07;3.38;;;2.53;;
29320;SDS011;16323;51.130;6.612;2022-11-20T03:16:47;4.03;;;2.65;;
29320;SDS011;16323;51.130;6.612;2022-11-20T03:19:14;3.10;;;2.47;;
29320;SDS011;16323;51.130;6.612;2022-11-20T03:21:55;3.10;;;2.47;;
29320;SDS011;16323;51.130;6.612;2022-11-20T03:24:37;4.90;;;2.85;;
29320;SDS011;16323;51.130;6.612;2022-11-20T03:27:13;4.32;;;2.70;;
29320;SDS011;16323;51.130;6.612;2022-11-20T03:29:50;4.50;;;2.67;;
29320;SDS011;16323;51.130;6.612;2022-11-20T03:32:29;4.28;;;2.95;;
29320;SDS011;16323;51.130;6.612;2022-11-20T03:35:06;3.85;;;2.60;;
29320;SDS011;16323;51.130;6.612;2022-11-20T03:37:33;4.70;;;2.72;;
29320;SDS011;16323;51.130;6.612;2022-11-20T03:43:12;3.97;;;3.03;;
29320;SDS011;16323;51.130;6.612;2022-11-20T03:45:39;3.55;;;2.47;;
29320;SDS011;16323;51.130;6.612;2022-11-20T03:48:28;3.00;;;2.53;;
29320;SDS011;16323;51.130;6.612;2022-11-20T03:51:15;3.92;;;2.70;;
29320;SDS011;16323;51.130;6.612;2022-11-20T03:53:59;3.47;;;2.38;;
29320;SDS011;16323;51.130;6.612;2022-11-20T03:56:28;3.60;;;2.85;;
29320;SDS011;16323;51.130;6.612;2022-11-20T04:02:33;4.85;;;2.85;;
29320;SDS011;16323;51.130;6.612;2022-11-20T04:05:09;2.95;;;2.38;;
29320;SDS011;16323;51.130;6.612;2022-11-20T04:07:36;3.10;;;2.38;;
29320;SDS011;16323;51.130;6.612;2022-11-20T04:10:21;4.70;;;2.88;;
29320;SDS011;16323;51.130;6.612;2022-11-20T04:12:57;5.20;;;2.78;;
29320;SDS011;16323;51.130;6.612;2022-11-20T04:15:24;4.88;;;2.42;;
29320;SDS011;16323;51.130;6.612;2022-11-20T04:18:15;3.00;;;2.40;;
29320;SDS011;16323;51.130;6.612;2022-11-20T04:20:43;3.47;;;2.53;;
29320;SDS011;16323;51.130;6.612;2022-11-20T04:23:21;3.80;;;2.63;;
29320;SDS011;16323;51.130;6.612;2022-11-20T04:25:48;3.80;;;2.75;;
29320;SDS011;16323;51.130;6.612;2022-11-20T04:28:31;3.45;;;2.67;;
29320;SDS011;16323;51.130;6.612;2022-11-20T04:31:05;3.75;;;2.28;;
29320;SDS011;16323;51.130;6.612;2022-11-20T04:33:39;3.78;;;2.60;;
29320;SDS011;16323;51.130;6.612;2022-11-20T04:36:19;5.40;;;2.92;;
29320;SDS011;16323;51.130;6.612;2022-11-20T04:39:11;4.55;;;2.75;;
29320;SDS011;16323;51.130;6.612;2022-11-20T04:41:40;4.43;;;2.70;;
29320;SDS011;16323;51.130;6.612;2022-11-20T04:44:07;3.85;;;2.70;;
29320;SDS011;16323;51.130;6.612;2022-11-20T04:46:37;4.38;;;3.05;;
29320;SDS011;16323;51.130;6.612;2022-11-20T04:49:15;3.38;;;2.25;;
29320;SDS011;16323;51.130;6.612;2022-11-20T04:51:43;4.28;;;3.08;;
29320;SDS011;16323;51.130;6.612;2022-11-20T04:57:07;4.07;;;2.63;;
29320;SDS011;16323;51.130;6.612;2022-11-20T04:59:50;6.13;;;2.65;;
29320;SDS011;16323;51.130;6.612;2022-11-20T05:02:30;2.97;;;2.58;;
29320;SDS011;16323;51.130;6.612;2022-11-20T05:05:07;5.07;;;2.70;;
29320;SDS011;16323;51.130;6.612;2022-11-20T05:10:17;4.35;;;2.70;;
29320;SDS011;16323;51.130;6.612;2022-11-20T05:12:56;3.78;;;2.67;;
29320;SDS011;16323;51.130;6.612;2022-11-20T05:15:39;3.88;;;2.50;;
29320;SDS011;16323;51.130;6.612;2022-11-20T05:18:08;4.47;;;3.05;;
29320;SDS011;16323;51.130;6.612;2022-11-20T05:24:19;4.03;;;2.75;;
29320;SDS011;16323;51.130;6.612;2022-11-20T05:29:27;4.25;;;2.90;;
29320;SDS011;16323;51.130;6.612;2022-11-20T05:34:44;4.70;;;3.00;;
29320;SDS011;16323;51.130;6.612;2022-11-20T05:37:19;3.80;;;2.63;;
29320;SDS011;16323;51.130;6.612;2022-11-20T05:40:00;5.35;;;3.53;;
29320;SDS011;16323;51.130;6.612;2022-11-20T05:42:36;4.18;;;3.20;;
29320;SDS011;16323;51.130;6.612;2022-11-20T05:45:03;3.95;;;2.85;;
29320;SDS011;16323;51.130;6.612;2022-11-20T05:47:41;4.60;;;2.97;;
29320;SDS011;16323;51.130;6.612;2022-11-20T05:50:18;4.07;;;3.03;;
29320;SDS011;16323;51.130;6.612;2022-11-20T05:53:00;4.75;;;3.05;;
29320;SDS011;16323;51.130;6.612;2022-11-20T05:58:31;3.65;;;2.50;;
29320;SDS011;16323;51.130;6.612;2022-11-20T06:01:09;4.15;;;2.88;;
29320;SDS011;16323;51.130;6.612;2022-11-20T06:03:40;5.43;;;3.38;;
29320;SDS011;16323;51.130;6.612;2022-11-20T06:06:18;4.43;;;2.90;;
29320;SDS011;16323;51.130;6.612;2022-11-20T06:09:03;4.55;;;2.80;;
29320;SDS011;16323;51.130;6.612;2022-11-20T06:11:37;6.00;;;3.33;;
29320;SDS011;16323;51.130;6.612;2022-11-20T06:14:08;4.90;;;3.20;;
29320;SDS011;16323;51.130;6.612;2022-11-20T06:16:35;3.97;;;2.70;;
29320;SDS011;16323;51.130;6.612;2022-11-20T06:19:12;3.85;;;2.83;;
29320;SDS011;16323;51.130;6.612;2022-11-20T06:21:41;4.05;;;2.70;;
29320;SDS011;16323;51.130;6.612;2022-11-20T06:24:10;4.28;;;2.65;;
29320;SDS011;16323;51.130;6.612;2022-11-20T06:26:54;4.13;;;2.90;;
29320;SDS011;16323;51.130;6.612;2022-11-20T06:29:34;3.42;;;2.80;;
29320;SDS011;16323;51.130;6.612;2022-11-20T06:34:43;4.82;;;3.17;;
29320;SDS011;16323;51.130;6.612;2022-11-20T06:37:18;4.60;;;2.95;;
29320;SDS011;16323;51.130;6.612;2022-11-20T06:39:46;5.38;;;3.30;;
29320;SDS011;16323;51.130;6.612;2022-11-20T06:42:36;4.22;;;3.08;;
29320;SDS011;16323;51.130;6.612;2022-11-20T06:45:03;5.30;;;3.15;;
29320;SDS011;16323;51.130;6.612;2022-11-20T06:47:59;4.38;;;2.95;;
29320;SDS011;16323;51.130;6.612;2022-11-20T06:53:30;4.50;;;3.35;;
29320;SDS011;16323;51.130;6.612;2022-11-20T06:56:08;5.65;;;3.38;;
29320;SDS011;16323;51.130;6.612;2022-11-20T06:58:48;5.15;;;2.90;;
29320;SDS011;16323;51.130;6.612;2022-11-20T07:01:26;4.60;;;2.92;;
29320;SDS011;16323;51.130;6.612;2022-11-20T07:03:53;3.83;;;2.92;;
29320;SDS011;16323;51.130;6.612;2022-11-20T07:06:20;4.35;;;2.90;;
29320;SDS011;16323;51.130;6.612;2022-11-20T07:12:02;4.03;;;3.08;;
29320;SDS011;16323;51.130;6.612;2022-11-20T07:14:31;4.35;;;3.10;;
29320;SDS011;16323;51.130;6.612;2022-11-20T07:20:12;4.82;;;3.10;;
29320;SDS011;16323;51.130;6.612;2022-11-20T07:26:32;3.83;;;2.67;;
29320;SDS011;16323;51.130;6.612;2022-11-20T07:28:58;5.05;;;3.00;;
29320;SDS011;16323;51.130;6.612;2022-11-20T07:31:41;4.35;;;3.05;;
29320;SDS011;16323;51.130;6.612;2022-11-20T07:34:08;4.05;;;2.90;;
29320;SDS011;16323;51.130;6.612;2022-11-20T07:36:48;4.95;;;3.10;;
29320;SDS011;16323;51.130;6.612;2022-11-20T07:42:46;4.25;;;3.05;;
29320;SDS011;16323;51.130;6.612;2022-11-20T07:45:19;3.60;;;2.63;;
29320;SDS011;16323;51.130;6.612;2022-11-20T07:47:48;4.70;;;3.15;;
29320;SDS011;16323;51.130;6.612;2022-11-20T07:50:17;5.28;;;2.80;;
29320;SDS011;16323;51.130;6.612;2022-11-20T07:55:30;4.78;;;3.42;;
29320;SDS011;16323;51.130;6.612;2022-11-20T07:58:16;5.03;;;3.22;;
29320;SDS011;16323;51.130;6.612;2022-11-20T08:00:42;4.22;;;3.25;;
29320;SDS011;16323;51.130;6.612;2022-11-20T08:03:11;4.47;;;3.35;;
29320;SDS011;16323;51.130;6.612;2022-11-20T08:05:39;5.00;;;3.67;;
29320;SDS011;16323;51.130;6.612;2022-11-20T08:08:05;5.07;;;3.50;;
29320;SDS011;16323;51.130;6.612;2022-11-20T08:10:32;5.75;;;3.40;;
29320;SDS011;16323;51.130;6.612;2022-11-20T08:13:00;6.38;;;3.97;;
29320;SDS011;16323;51.130;6.612;2022-11-20T08:15:47;6.53;;;3.80;;
29320;SDS011;16323;51.130;6.612;2022-11-20T08:18:17;7.20;;;4.28;;
29320;SDS011;16323;51.130;6.612;2022-11-20T08:20:44;6.78;;;5.07;;
29320;SDS011;16323;51.130;6.612;2022-11-20T08:23:11;5.95;;;4.38;;
29320;SDS011;16323;51.130;6.612;2022-11-20T08:25:38;7.18;;;4.45;;
29320;SDS011;16323;51.130;6.612;2022-11-20T08:28:06;7.45;;;4.47;;
29320;SDS011;16323;51.130;6.612;2022-11-20T08:30:34;5.63;;;4.05;;
29320;SDS011;16323;51.130;6.612;2022-11-20T08:33:02;5.60;;;4.28;;
29320;SDS011;16323;51.130;6.612;2022-11-20T08:35:33;6.50;;;4.30;;
29320;SDS011;16323;51.130;6.612;2022-11-20T08:38:01;7.00;;;4.53;;
29320;SDS011;16323;51.130;6.612;2022-11-20T08:40:28;4.28;;;3.88;;
29320;SDS011;16323;51.130;6.612;2022-11-20T08:42:54;7.78;;;4.47;;
29320;SDS011;16323;51.130;6.612;2022-11-20T08:45:21;6.18;;;4.25;;
29320;SDS011;16323;51.130;6.612;2022-11-20T08:47:48;5.75;;;4.07;;
29320;SDS011;16323;51.130;6.612;2022-11-20T08:50:15;6.85;;;4.78;;
29320;SDS011;16323;51.130;6.612;2022-11-20T08:52:44;6.03;;;4.15;;
29320;SDS011;16323;51.130;6.612;2022-11-20T08:55:11;5.60;;;4.10;;
29320;SDS011;16323;51.130;6.612;2022-11-20T08:57:38;5.72;;;3.95;;
29320;SDS011;16323;51.130;6.612;2022-11-20T09:00:06;5.65;;;3.45;;
29320;SDS011;16323;51.130;6.612;2022-11-20T09:02:33;5.60;;;3.83;;
29320;SDS011;16323;51.130;6.612;2022-11-20T09:05:00;5.55;;;4.10;;
29320;SDS011;16323;51.130;6.612;2022-11-20T09:07:28;5.70;;;3.60;;
29320;SDS011;16323;51.130;6.612;2022-11-20T09:09:56;5.10;;;3.72;;
29320;SDS011;16323;51.130;6.612;2022-11-20T09:12:23;5.97;;;3.78;;
29320;SDS011;16323;51.130;6.612;2022-11-20T09:14:50;7.35;;;4.32;;
29320;SDS011;16323;51.130;6.612;2022-11-20T09:17:17;4.20;;;3.28;;
29320;SDS011;16323;51.130;6.612;2022-11-20T09:19:45;5.70;;;3.80;;
29320;SDS011;16323;51.130;6.612;2022-11-20T09:22:12;5.63;;;3.72;;
29320;SDS011;16323;51.130;6.612;2022-11-20T09:24:39;5.65;;;3.95;;
29320;SDS011;16323;51.130;6.612;2022-11-20T09:27:08;4.78;;;3.45;;
29320;SDS011;16323;51.130;6.612;2022-11-20T09:29:35;5.32;;;3.38;;
29320;SDS011;16323;51.130;6.612;2022-11-20T09:32:02;5.22;;;3.67;;
29320;SDS011;16323;51.130;6.612;2022-11-20T09:34:29;5.60;;;3.35;;
29320;SDS011;16323;51.130;6.612;2022-11-20T09:36:56;6.20;;;3.78;;
29320;SDS011;16323;51.130;6.612;2022-11-20T09:39:22;6.18;;;4.32;;
29320;SDS011;16323;51.130;6.612;2022-11-20T09:41:54;5.78;;;3.83;;
29320;SDS011;16323;51.130;6.612;2022-11-20T09:47:30;8.02;;;3.80;;
29320;SDS011;16323;51.130;6.612;2022-11-20T09:50:14;6.95;;;3.85;;
29320;SDS011;16323;51.130;6.612;2022-11-20T09:52:55;7.75;;;4.05;;
29320;SDS011;16323;51.130;6.612;2022-11-20T09:55:33;6.10;;;3.60;;
29320;SDS011;16323;51.130;6.612;2022-11-20T09:58:01;6.22;;;3.97;;
29320;SDS011;16323;51.130;6.612;2022-11-20T10:00:34;7.32;;;4.10;;
29320;SDS011;16323;51.130;6.612;2022-11-20T10:03:03;6.18;;;3.80;;
29320;SDS011;16323;51.130;6.612;2022-11-20T10:05:41;8.15;;;4.03;;
29320;SDS011;16323;51.130;6.612;2022-11-20T10:08:15;6.95;;;3.92;;
29320;SDS011;16323;51.130;6.612;2022-11-20T10:10:46;6.70;;;4.15;;
29320;SDS011;16323;51.130;6.612;2022-11-20T10:13:27;6.57;;;3.63;;
29320;SDS011;16323;51.130;6.612;2022-11-20T10:16:12;8.13;;;4.63;;
29320;SDS011;16323;51.130;6.612;2022-11-20T10:18:51;7.03;;;3.80;;
29320;SDS011;16323;51.130;6.612;2022-11-20T10:21:30;6.57;;;3.47;;
29320;SDS011;16323;51.130;6.612;2022-11-20T10:24:15;6.47;;;3.88;;
29320;SDS011;16323;51.130;6.612;2022-11-20T10:27:02;7.25;;;4.00;;
29320;SDS011;16323;51.130;6.612;2022-11-20T10:29:45;6.38;;;3.97;;
29320;SDS011;16323;51.130;6.612;2022-11-20T10:32:18;6.35;;;3.85;;
29320;SDS011;16323;51.130;6.612;2022-11-20T10:34:52;6.82;;;4.22;;
29320;SDS011;16323;51.130;6.612;2022-11-20T10:37:26;6.60;;;4.15;;
29320;SDS011;16323;51.130;6.612;2022-11-20T10:39:56;6.55;;;4.00;;
29320;SDS011;16323;51.130;6.612;2022-11-20T10:42:29;5.50;;;4.03;;
29320;SDS011;16323;51.130;6.612;2022-11-20T10:45:02;7.05;;;4.38;;
29320;SDS011;16323;51.130;6.612;2022-11-20T10:47:40;6.30;;;4.20;;
29320;SDS011;16323;51.130;6.612;2022-11-20T10:50:09;6.25;;;3.92;;
29320;SDS011;16323;51.130;6.612;2022-11-20T10:52:42;5.40;;;4.00;;
29320;SDS011;16323;51.130;6.612;2022-11-20T10:55:20;8.98;;;4.88;;
29320;SDS011;16323;51.130;6.612;2022-11-20T10:57:56;9.75;;;3.97;;
29320;SDS011;16323;51.130;6.612;2022-11-20T11:00:32;47.50;;;4.85;;
29320;SDS011;16323;51.130;6.612;2022-11-20T11:03:00;26.50;;;5.18;;
29320;SDS011;16323;51.130;6.612;2022-11-20T11:05:31;55.45;;;5.80;;
29320;SDS011;16323;51.130;6.612;2022-11-20T11:08:02;39.42;;;5.68;;
29320;SDS011;16323;51.130;6.612;2022-11-20T11:10:32;37.25;;;5.43;;
29320;SDS011;16323;51.130;6.612;2022-11-20T11:13:07;28.88;;;6.05;;
29320;SDS011;16323;51.130;6.612;2022-11-20T11:15:45;17.02;;;4.47;;
29320;SDS011;16323;51.130;6.612;2022-11-20T11:18:22;19.98;;;5.05;;
29320;SDS011;16323;51.130;6.612;2022-11-20T11:20:50;19.75;;;4.30;;
29320;SDS011;16323;51.130;6.612;2022-11-20T11:23:29;14.20;;;4.20;;
29320;SDS011;16323;51.130;6.612;2022-11-20T11:25:58;31.10;;;4.88;;
29320;SDS011;16323;51.130;6.612;2022-11-20T11:28:26;28.63;;;5.20;;
29320;SDS011;16323;51.130;6.612;2022-11-20T11:30:54;27.42;;;4.95;;
29320;SDS011;16323;51.130;6.612;2022-11-20T11:33:24;31.58;;;4.80;;
29320;SDS011;16323;51.130;6.612;2022-11-20T11:35:53;26.38;;;5.85;;
29320;SDS011;16323;51.130;6.612;2022-11-20T11:38:23;24.10;;;4.53;;
29320;SDS011;16323;51.130;6.612;2022-11-20T11:40:55;16.73;;;4.55;;
29320;SDS011;16323;51.130;6.612;2022-11-20T11:43:23;14.13;;;4.93;;
29320;SDS011;16323;51.130;6.612;2022-11-20T11:46:21;15.25;;;4.10;;
29320;SDS011;16323;51.130;6.612;2022-11-20T11:48:58;9.02;;;3.65;;
29320;SDS011;16323;51.130;6.612;2022-11-20T11:51:28;11.50;;;4.75;;
29320;SDS011;16323;51.130;6.612;2022-11-20T11:54:00;16.50;;;3.95;;
29320;SDS011;16323;51.130;6.612;2022-11-20T11:56:31;12.35;;;3.58;;
29320;SDS011;16323;51.130;6.612;2022-11-20T11:59:00;12.10;;;3.80;;
29320;SDS011;16323;51.130;6.612;2022-11-20T12:01:33;12.88;;;4.18;;
29320;SDS011;16323;51.130;6.612;2022-11-20T12:04:10;10.45;;;3.72;;
29320;SDS011;16323;51.130;6.612;2022-11-20T12:06:43;9.32;;;3.78;;
29320;SDS011;16323;51.130;6.612;2022-11-20T12:09:14;13.38;;;3.47;;
29320;SDS011;16323;51.130;6.612;2022-11-20T12:11:45;7.63;;;4.22;;
29320;SDS011;16323;51.130;6.612;2022-11-20T12:14:17;8.57;;;3.30;;
29320;SDS011;16323;51.130;6.612;2022-11-20T12:16:49;8.93;;;4.40;;
29320;SDS011;16323;51.130;6.612;2022-11-20T12:19:19;8.65;;;3.67;;
29320;SDS011;16323;51.130;6.612;2022-11-20T12:21:49;9.35;;;4.18;;
29320;SDS011;16323;51.130;6.612;2022-11-20T12:24:31;6.88;;;3.83;;
29320;SDS011;16323;51.130;6.612;2022-11-20T12:27:14;5.82;;;3.33;;
29320;SDS011;16323;51.130;6.612;2022-11-20T12:30:02;6.55;;;3.58;;
29320;SDS011;16323;51.130;6.612;2022-11-20T12:35:35;8.20;;;4.10;;
29320;SDS011;16323;51.130;6.612;2022-11-20T12:38:20;7.27;;;4.50;;
29320;SDS011;16323;51.130;6.612;2022-11-20T12:41:01;8.77;;;4.43;;
29320;SDS011;16323;51.130;6.612;2022-11-20T12:43:39;8.57;;;4.55;;
29320;SDS011;16323;51.130;6.612;2022-11-20T12:46:29;6.97;;;4.40;;
29320;SDS011;16323;51.130;6.612;2022-11-20T12:49:18;7.95;;;4.05;;
29320;SDS011;16323;51.130;6.612;2022-11-20T12:52:00;6.03;;;3.85;;
29320;SDS011;16323;51.130;6.612;2022-11-20T12:57:39;6.35;;;3.80;;
29320;SDS011;16323;51.130;6.612;2022-11-20T13:00:15;6.25;;;3.58;;
29320;SDS011;16323;51.130;6.612;2022-11-20T13:02:58;6.32;;;3.30;;
29320;SDS011;16323;51.130;6.612;2022-11-20T13:05:36;5.68;;;3.38;;
29320;SDS011;16323;51.130;6.612;2022-11-20T13:08:08;6.50;;;3.35;;
29320;SDS011;16323;51.130;6.612;2022-11-20T13:10:43;5.47;;;3.80;;
29320;SDS011;16323;51.130;6.612;2022-11-20T13:13:14;5.07;;;3.28;;
29320;SDS011;16323;51.130;6.612;2022-11-20T13:15:50;8.05;;;3.78;;
29320;SDS011;16323;51.130;6.612;2022-11-20T13:18:21;7.22;;;3.80;;
29320;SDS011;16323;51.130;6.612;2022-11-20T13:20:48;5.45;;;3.33;;
29320;SDS011;16323;51.130;6.612;2022-11-20T13:23:26;6.85;;;4.03;;
29320;SDS011;16323;51.130;6.612;2022-11-20T13:26:04;7.80;;;3.92;;
29320;SDS011;16323;51.130;6.612;2022-11-20T13:28:32;7.38;;;4.20;;
29320;SDS011;16323;51.130;6.612;2022-11-20T13:31:00;6.75;;;4.03;;
29320;SDS011;16323;51.130;6.612;2022-11-20T13:33:28;7.22;;;4.13;;
29320;SDS011;16323;51.130;6.612;2022-11-20T13:35:58;6.65;;;3.97;;
29320;SDS011;16323;51.130;6.612;2022-11-20T13:38:27;7.55;;;4.20;;
29320;SDS011;16323;51.130;6.612;2022-11-20T13:41:07;5.45;;;3.33;;
29320;SDS011;16323;51.130;6.612;2022-11-20T13:43:48;5.72;;;3.92;;
29320;SDS011;16323;51.130;6.612;2022-11-20T13:46:15;5.63;;;3.70;;
29320;SDS011;16323;51.130;6.612;2022-11-20T13:48:49;6.80;;;3.97;;
29320;SDS011;16323;51.130;6.612;2022-11-20T13:51:25;5.50;;;3.63;;
29320;SDS011;16323;51.130;6.612;2022-11-20T13:54:04;6.50;;;3.70;;
29320;SDS011;16323;51.130;6.612;2022-11-20T13:57:11;7.80;;;4.03;;
29320;SDS011;16323;51.130;6.612;2022-11-20T13:59:56;5.95;;;3.60;;
29320;SDS011;16323;51.130;6.612;2022-11-20T14:02:27;5.25;;;3.60;;
29320;SDS011;16323;51.130;6.612;2022-11-20T14:04:56;4.82;;;3.70;;
29320;SDS011;16323;51.130;6.612;2022-11-20T14:07:25;8.68;;;4.78;;
29320;SDS011;16323;51.130;6.612;2022-11-20T14:09:59;10.93;;;4.68;;
29320;SDS011;16323;51.130;6.612;2022-11-20T14:12:27;21.42;;;4.43;;
29320;SDS011;16323;51.130;6.612;2022-11-20T14:14:55;10.50;;;4.13;;
29320;SDS011;16323;51.130;6.612;2022-11-20T14:17:23;8.13;;;3.83;;
29320;SDS011;16323;51.130;6.612;2022-11-20T14:19:57;8.98;;;3.83;;
29320;SDS011;16323;51.130;6.612;2022-11-20T14:22:27;5.85;;;3.83;;
29320;SDS011;16323;51.130;6.612;2022-11-20T14:25:03;7.15;;;3.78;;
29320;SDS011;16323;51.130;6.612;2022-11-20T14:27:33;5.68;;;3.58;;
29320;SDS011;16323;51.130;6.612;2022-11-20T14:30:02;8.73;;;3.53;;
29320;SDS011;16323;51.130;6.612;2022-11-20T14:32:31;6.47;;;3.75;;
29320;SDS011;16323;51.130;6.612;2022-11-20T14:35:02;6.90;;;3.83;;
29320;SDS011;16323;51.130;6.612;2022-11-20T14:37:36;5.85;;;3.63;;
29320;SDS011;16323;51.130;6.612;2022-11-20T14:40:20;6.63;;;3.65;;
29320;SDS011;16323;51.130;6.612;2022-11-20T14:42:49;5.15;;;3.15;;
29320;SDS011;16323;51.130;6.612;2022-11-20T14:45:16;5.13;;;3.55;;
29320;SDS011;16323;51.130;6.612;2022-11-20T14:47:44;5.57;;;3.40;;
29320;SDS011;16323;51.130;6.612;2022-11-20T14:50:12;5.60;;;3.47;;
29320;SDS011;16323;51.130;6.612;2022-11-20T14:52:49;6.40;;;3.13;;
29320;SDS011;16323;51.130;6.612;2022-11-20T14:55:26;6.15;;;3.42;;
29320;SDS011;16323;51.130;6.612;2022-11-20T14:57:55;5.85;;;3.55;;
29320;SDS011;16323;51.130;6.612;2022-11-20T15:00:23;7.13;;;4.03;;
29320;SDS011;16323;51.130;6.612;2022-11-20T15:02:51;6.60;;;3.88;;
29320;SDS011;16323;51.130;6.612;2022-11-20T15:05:19;10.48;;;3.90;;
29320;SDS011;16323;51.130;6.612;2022-11-20T15:07:48;6.75;;;4.20;;
29320;SDS011;16323;51.130;6.612;2022-11-20T15:10:20;6.70;;;4.20;;
29320;SDS011;16323;51.130;6.612;2022-11-20T15:12:50;6.03;;;4.18;;
29320;SDS011;16323;51.130;6.612;2022-11-20T15:15:21;7.68;;;4.07;;
29320;SDS011;16323;51.130;6.612;2022-11-20T15:17:57;8.85;;;4.22;;
29320;SDS011;16323;51.130;6.612;2022-11-20T15:20:27;7.00;;;3.80;;
29320;SDS011;16323;51.130;6.612;2022-11-20T15:22:56;6.13;;;4.10;;
29320;SDS011;16323;51.130;6.612;2022-11-20T15:25:23;7.22;;;4.28;;
29320;SDS011;16323;51.130;6.612;2022-11-20T15:27:53;5.22;;;3.35;;
29320;SDS011;16323;51.130;6.612;2022-11-20T15:30:22;10.43;;;3.92;;
29320;SDS011;16323;51.130;6.612;2022-11-20T15:32:49;11.57;;;4.38;;
29320;SDS011;16323;51.130;6.612;2022-11-20T15:35:16;15.48;;;3.75;;
29320;SDS011;16323;51.130;6.612;2022-11-20T15:37:43;9.05;;;4.00;;
29320;SDS011;16323;51.130;6.612;2022-11-20T15:40:10;13.75;;;3.70;;
29320;SDS011;16323;51.130;6.612;2022-11-20T15:42:37;8.07;;;4.55;;
29320;SDS011;16323;51.130;6.612;2022-11-20T15:45:25;10.48;;;4.25;;
29320;SDS011;16323;51.130;6.612;2022-11-20T15:47:53;9.88;;;4.05;;
29320;SDS011;16323;51.130;6.612;2022-11-20T15:50:20;11.43;;;4.30;;
29320;SDS011;16323;51.130;6.612;2022-11-20T15:52:48;8.90;;;3.85;;
29320;SDS011;16323;51.130;6.612;2022-11-20T15:55:15;7.70;;;3.75;;
29320;SDS011;16323;51.130;6.612;2022-11-20T15:57:42;9.73;;;4.47;;
29320;SDS011;16323;51.130;6.612;2022-11-20T16:00:09;7.88;;;3.80;;
29320;SDS011;16323;51.130;6.612;2022-11-20T16:02:39;6.72;;;4.10;;
29320;SDS011;16323;51.130;6.612;2022-11-20T16:05:08;6.07;;;3.63;;
29320;SDS011;16323;51.130;6.612;2022-11-20T16:07:37;6.15;;;3.97;;
29320;SDS011;16323;51.130;6.612;2022-11-20T16:10:04;6.25;;;3.42;;
29320;SDS011;16323;51.130;6.612;2022-11-20T16:12:31;5.53;;;3.60;;
29320;SDS011;16323;51.130;6.612;2022-11-20T16:15:15;7.68;;;3.70;;
29320;SDS011;16323;51.130;6.612;2022-11-20T16:18:01;5.68;;;3.30;;
29320;SDS011;16323;51.130;6.612;2022-11-20T16:20:27;5.15;;;3.60;;
29320;SDS011;16323;51.130;6.612;2022-11-20T16:22:55;5.43;;;3.45;;
29320;SDS011;16323;51.130;6.612;2022-11-20T16:25:21;8.73;;;3.63;;
29320;SDS011;16323;51.130;6.612;2022-11-20T16:27:48;4.47;;;3.20;;
29320;SDS011;16323;51.130;6.612;2022-11-20T16:30:15;6.82;;;3.65;;
29320;SDS011;16323;51.130;6.612;2022-11-20T16:32:42;4.72;;;3.53;;
29320;SDS011;16323;51.130;6.612;2022-11-20T16:35:10;4.93;;;3.00;;
29320;SDS011;16323;51.130;6.612;2022-11-20T16:37:37;10.40;;;3.75;;
29320;SDS011;16323;51.130;6.612;2022-11-20T16:40:04;5.82;;;3.50;;
29320;SDS011;16323;51.130;6.612;2022-11-20T16:42:32;5.75;;;3.65;;
29320;SDS011;16323;51.130;6.612;2022-11-20T16:44:59;4.30;;;3.17;;
29320;SDS011;16323;51.130;6.612;2022-11-20T16:47:26;5.00;;;3.38;;
29320;SDS011;16323;51.130;6.612;2022-11-20T16:49:53;7.25;;;3.85;;
29320;SDS011;16323;51.130;6.612;2022-11-20T16:52:21;6.93;;;3.70;;
29320;SDS011;16323;51.130;6.612;2022-11-20T16:54:48;5.60;;;3.70;;
29320;SDS011;16323;51.130;6.612;2022-11-20T16:57:15;4.72;;;3.33;;
29320;SDS011;16323;51.130;6.612;2022-11-20T16:59:42;4.25;;;3.03;;